sensor_id;sensor_type;location;lat;lon;timestamp;P1;durP1;ratioP1;P2;durP2;ratioP2
7833;SDS011;3962;42.696;23.354;2023-01-24T00:01:49;9.00;;;5.83;;
7833;SDS011;3962;42.696;23.354;2023-01-24T00:04:15;10.40;;;6.97;;
7833;SDS011;3962;42.696;23.354;2023-01-24T00:06:42;10.57;;;7.37;;
7833;SDS011;3962;42.696;23.354;2023-01-24T00:09:10;8.90;;;6.83;;
7833;SDS011;3962;42.696;23.354;2023-01-24T00:11:37;7.33;;;5.20;;
7833;SDS011;3962;42.696;23.354;2023-01-24T00:14:05;9.77;;;6.33;;
7833;SDS011;3962;42.696;23.354;2023-01-24T00:16:32;9.73;;;6.43;;
7833;SDS011;3962;42.696;23.354;2023-01-24T00:18:59;10.80;;;7.07;;
7833;SDS011;3962;42.696;23.354;2023-01-24T00:21:25;9.60;;;5.87;;
7833;SDS011;3962;42.696;23.354;2023-01-24T00:23:53;11.60;;;6.20;;
7833;SDS011;3962;42.696;23.354;2023-01-24T00:26:21;13.70;;;6.30;;
7833;SDS011;3962;42.696;23.354;2023-01-24T00:28:49;7.20;;;5.20;;
7833;SDS011;3962;42.696;23.354;2023-01-24T00:31:17;8.47;;;5.53;;
7833;SDS011;3962;42.696;23.354;2023-01-24T00:33:44;8.60;;;4.80;;
7833;SDS011;3962;42.696;23.354;2023-01-24T00:36:11;9.03;;;5.60;;
7833;SDS011;3962;42.696;23.354;2023-01-24T00:38:39;8.23;;;5.40;;
7833;SDS011;3962;42.696;23.354;2023-01-24T00:41:06;8.93;;;6.27;;
7833;SDS011;3962;42.696;23.354;2023-01-24T00:43:32;10.30;;;5.30;;
7833;SDS011;3962;42.696;23.354;2023-01-24T00:45:59;9.30;;;5.90;;
7833;SDS011;3962;42.696;23.354;2023-01-24T00:48:28;10.70;;;6.13;;
7833;SDS011;3962;42.696;23.354;2023-01-24T00:50:55;10.73;;;5.67;;
7833;SDS011;3962;42.696;23.354;2023-01-24T00:53:21;12.00;;;6.30;;
7833;SDS011;3962;42.696;23.354;2023-01-24T00:55:48;9.07;;;6.10;;
7833;SDS011;3962;42.696;23.354;2023-01-24T00:58:15;8.30;;;5.73;;
7833;SDS011;3962;42.696;23.354;2023-01-24T01:00:43;8.83;;;5.57;;
7833;SDS011;3962;42.696;23.354;2023-01-24T01:03:10;8.73;;;5.30;;
7833;SDS011;3962;42.696;23.354;2023-01-24T01:05:40;9.87;;;6.37;;
7833;SDS011;3962;42.696;23.354;2023-01-24T01:08:07;10.57;;;6.00;;
7833;SDS011;3962;42.696;23.354;2023-01-24T01:10:35;9.50;;;6.30;;
7833;SDS011;3962;42.696;23.354;2023-01-24T01:13:02;9.43;;;5.50;;
7833;SDS011;3962;42.696;23.354;2023-01-24T01:15:30;11.03;;;6.47;;
7833;SDS011;3962;42.696;23.354;2023-01-24T01:17:57;10.37;;;6.63;;
7833;SDS011;3962;42.696;23.354;2023-01-24T01:20:24;10.17;;;6.23;;
7833;SDS011;3962;42.696;23.354;2023-01-24T01:22:54;11.17;;;6.93;;
7833;SDS011;3962;42.696;23.354;2023-01-24T01:25:21;10.57;;;6.47;;
7833;SDS011;3962;42.696;23.354;2023-01-24T01:27:47;9.70;;;6.10;;
7833;SDS011;3962;42.696;23.354;2023-01-24T01:30:14;8.93;;;5.90;;
7833;SDS011;3962;42.696;23.354;2023-01-24T01:32:41;10.30;;;6.77;;
7833;SDS011;3962;42.696;23.354;2023-01-24T01:35:08;10.73;;;6.67;;
7833;SDS011;3962;42.696;23.354;2023-01-24T01:37:35;11.10;;;6.07;;
7833;SDS011;3962;42.696;23.354;2023-01-24T01:40:04;11.13;;;5.73;;
7833;SDS011;3962;42.696;23.354;2023-01-24T01:42:44;9.80;;;5.50;;
7833;SDS011;3962;42.696;23.354;2023-01-24T01:45:35;9.13;;;5.87;;
7833;SDS011;3962;42.696;23.354;2023-01-24T01:48:08;10.83;;;6.03;;
7833;SDS011;3962;42.696;23.354;2023-01-24T01:50:43;7.43;;;5.10;;
7833;SDS011;3962;42.696;23.354;2023-01-24T01:53:14;10.83;;;6.37;;
7833;SDS011;3962;42.696;23.354;2023-01-24T01:55:43;11.00;;;5.40;;
7833;SDS011;3962;42.696;23.354;2023-01-24T01:58:16;10.00;;;5.77;;
7833;SDS011;3962;42.696;23.354;2023-01-24T02:00:44;11.40;;;6.30;;
7833;SDS011;3962;42.696;23.354;2023-01-24T02:03:15;10.13;;;6.40;;
7833;SDS011;3962;42.696;23.354;2023-01-24T02:06:06;8.87;;;5.47;;
7833;SDS011;3962;42.696;23.354;2023-01-24T02:08:42;8.50;;;5.00;;
7833;SDS011;3962;42.696;23.354;2023-01-24T02:11:11;6.60;;;5.03;;
7833;SDS011;3962;42.696;23.354;2023-01-24T02:13:57;10.13;;;4.93;;
7833;SDS011;3962;42.696;23.354;2023-01-24T02:16:39;7.93;;;5.20;;
7833;SDS011;3962;42.696;23.354;2023-01-24T02:19:06;8.13;;;5.47;;
7833;SDS011;3962;42.696;23.354;2023-01-24T02:21:36;9.90;;;4.93;;
7833;SDS011;3962;42.696;23.354;2023-01-24T02:24:04;6.53;;;4.50;;
7833;SDS011;3962;42.696;23.354;2023-01-24T02:26:35;8.63;;;5.60;;
7833;SDS011;3962;42.696;23.354;2023-01-24T02:29:02;12.30;;;5.33;;
7833;SDS011;3962;42.696;23.354;2023-01-24T02:34:20;11.00;;;6.03;;
7833;SDS011;3962;42.696;23.354;2023-01-24T02:36:48;12.67;;;6.87;;
7833;SDS011;3962;42.696;23.354;2023-01-24T02:39:20;6.00;;;4.90;;
7833;SDS011;3962;42.696;23.354;2023-01-24T02:41:52;7.97;;;5.97;;
7833;SDS011;3962;42.696;23.354;2023-01-24T02:44:23;9.07;;;5.67;;
7833;SDS011;3962;42.696;23.354;2023-01-24T02:46:55;9.50;;;6.27;;
7833;SDS011;3962;42.696;23.354;2023-01-24T02:49:22;7.47;;;5.60;;
7833;SDS011;3962;42.696;23.354;2023-01-24T02:51:48;11.37;;;6.20;;
7833;SDS011;3962;42.696;23.354;2023-01-24T02:54:33;5.97;;;5.10;;
7833;SDS011;3962;42.696;23.354;2023-01-24T02:57:01;8.00;;;5.57;;
7833;SDS011;3962;42.696;23.354;2023-01-24T02:59:48;6.53;;;5.03;;
7833;SDS011;3962;42.696;23.354;2023-01-24T03:02:15;6.53;;;5.37;;
7833;SDS011;3962;42.696;23.354;2023-01-24T03:04:42;5.30;;;4.53;;
7833;SDS011;3962;42.696;23.354;2023-01-24T03:07:08;7.23;;;4.27;;
7833;SDS011;3962;42.696;23.354;2023-01-24T03:09:35;7.77;;;4.80;;
7833;SDS011;3962;42.696;23.354;2023-01-24T03:12:05;7.53;;;4.57;;
7833;SDS011;3962;42.696;23.354;2023-01-24T03:14:51;6.40;;;4.97;;
7833;SDS011;3962;42.696;23.354;2023-01-24T03:17:35;6.47;;;5.23;;
7833;SDS011;3962;42.696;23.354;2023-01-24T03:20:19;8.83;;;5.20;;
7833;SDS011;3962;42.696;23.354;2023-01-24T03:23:03;7.63;;;4.87;;
7833;SDS011;3962;42.696;23.354;2023-01-24T03:25:47;6.23;;;4.70;;
7833;SDS011;3962;42.696;23.354;2023-01-24T03:28:37;6.50;;;5.23;;
7833;SDS011;3962;42.696;23.354;2023-01-24T03:31:22;6.50;;;4.77;;
7833;SDS011;3962;42.696;23.354;2023-01-24T03:34:05;7.53;;;5.37;;
7833;SDS011;3962;42.696;23.354;2023-01-24T03:36:49;9.23;;;4.10;;
7833;SDS011;3962;42.696;23.354;2023-01-24T03:39:16;7.47;;;5.23;;
7833;SDS011;3962;42.696;23.354;2023-01-24T03:42:01;8.10;;;5.37;;
7833;SDS011;3962;42.696;23.354;2023-01-24T03:44:29;5.57;;;4.47;;
7833;SDS011;3962;42.696;23.354;2023-01-24T03:46:56;8.30;;;5.87;;
7833;SDS011;3962;42.696;23.354;2023-01-24T03:49:22;8.02;;;5.70;;
7833;SDS011;3962;42.696;23.354;2023-01-24T03:52:07;6.23;;;5.07;;
7833;SDS011;3962;42.696;23.354;2023-01-24T03:54:53;4.97;;;4.40;;
7833;SDS011;3962;42.696;23.354;2023-01-24T03:57:20;6.03;;;4.90;;
7833;SDS011;3962;42.696;23.354;2023-01-24T03:59:49;6.23;;;5.17;;
7833;SDS011;3962;42.696;23.354;2023-01-24T04:02:16;7.33;;;5.60;;
7833;SDS011;3962;42.696;23.354;2023-01-24T04:04:43;7.27;;;5.87;;
7833;SDS011;3962;42.696;23.354;2023-01-24T04:07:27;7.70;;;5.47;;
7833;SDS011;3962;42.696;23.354;2023-01-24T04:09:55;7.63;;;5.27;;
7833;SDS011;3962;42.696;23.354;2023-01-24T04:12:22;7.57;;;5.30;;
7833;SDS011;3962;42.696;23.354;2023-01-24T04:14:51;5.10;;;4.53;;
7833;SDS011;3962;42.696;23.354;2023-01-24T04:17:17;5.93;;;4.60;;
7833;SDS011;3962;42.696;23.354;2023-01-24T04:19:44;6.67;;;5.03;;
7833;SDS011;3962;42.696;23.354;2023-01-24T04:22:11;9.50;;;5.73;;
7833;SDS011;3962;42.696;23.354;2023-01-24T04:24:40;8.83;;;6.23;;
7833;SDS011;3962;42.696;23.354;2023-01-24T04:27:07;6.60;;;5.47;;
7833;SDS011;3962;42.696;23.354;2023-01-24T04:29:34;8.17;;;5.37;;
7833;SDS011;3962;42.696;23.354;2023-01-24T04:32:02;5.97;;;4.63;;
7833;SDS011;3962;42.696;23.354;2023-01-24T04:34:29;8.30;;;5.80;;
7833;SDS011;3962;42.696;23.354;2023-01-24T04:36:56;5.60;;;4.40;;
7833;SDS011;3962;42.696;23.354;2023-01-24T04:39:23;8.90;;;4.77;;
7833;SDS011;3962;42.696;23.354;2023-01-24T04:41:49;9.40;;;5.83;;
7833;SDS011;3962;42.696;23.354;2023-01-24T04:44:16;4.87;;;4.37;;
7833;SDS011;3962;42.696;23.354;2023-01-24T04:46:43;4.47;;;3.87;;
7833;SDS011;3962;42.696;23.354;2023-01-24T04:49:11;5.13;;;3.43;;
7833;SDS011;3962;42.696;23.354;2023-01-24T04:51:38;8.13;;;4.63;;
7833;SDS011;3962;42.696;23.354;2023-01-24T04:54:07;4.87;;;3.43;;
7833;SDS011;3962;42.696;23.354;2023-01-24T04:56:33;5.63;;;4.37;;
7833;SDS011;3962;42.696;23.354;2023-01-24T04:59:00;4.27;;;3.53;;
7833;SDS011;3962;42.696;23.354;2023-01-24T05:01:27;7.63;;;4.43;;
7833;SDS011;3962;42.696;23.354;2023-01-24T05:03:54;7.70;;;4.43;;
7833;SDS011;3962;42.696;23.354;2023-01-24T05:06:25;6.83;;;4.00;;
7833;SDS011;3962;42.696;23.354;2023-01-24T05:08:52;10.73;;;4.27;;
7833;SDS011;3962;42.696;23.354;2023-01-24T05:11:19;3.97;;;3.57;;
7833;SDS011;3962;42.696;23.354;2023-01-24T05:13:46;8.23;;;6.30;;
7833;SDS011;3962;42.696;23.354;2023-01-24T05:16:13;11.70;;;5.43;;
7833;SDS011;3962;42.696;23.354;2023-01-24T05:18:40;15.03;;;4.93;;
7833;SDS011;3962;42.696;23.354;2023-01-24T05:21:07;10.67;;;5.00;;
7833;SDS011;3962;42.696;23.354;2023-01-24T05:23:38;8.63;;;4.33;;
7833;SDS011;3962;42.696;23.354;2023-01-24T05:26:05;11.40;;;4.83;;
7833;SDS011;3962;42.696;23.354;2023-01-24T05:28:32;6.30;;;4.80;;
7833;SDS011;3962;42.696;23.354;2023-01-24T05:30:59;7.90;;;5.17;;
7833;SDS011;3962;42.696;23.354;2023-01-24T05:33:26;8.80;;;5.70;;
7833;SDS011;3962;42.696;23.354;2023-01-24T05:35:57;6.23;;;4.40;;
7833;SDS011;3962;42.696;23.354;2023-01-24T05:38:24;4.33;;;3.53;;
7833;SDS011;3962;42.696;23.354;2023-01-24T05:40:52;7.77;;;4.80;;
7833;SDS011;3962;42.696;23.354;2023-01-24T05:43:19;8.53;;;5.90;;
7833;SDS011;3962;42.696;23.354;2023-01-24T05:45:46;9.23;;;5.57;;
7833;SDS011;3962;42.696;23.354;2023-01-24T05:48:13;5.83;;;4.90;;
7833;SDS011;3962;42.696;23.354;2023-01-24T05:50:39;7.60;;;5.40;;
7833;SDS011;3962;42.696;23.354;2023-01-24T05:53:06;8.47;;;5.97;;
7833;SDS011;3962;42.696;23.354;2023-01-24T05:55:33;9.57;;;6.17;;
7833;SDS011;3962;42.696;23.354;2023-01-24T05:58:01;13.00;;;6.80;;
7833;SDS011;3962;42.696;23.354;2023-01-24T06:00:28;11.50;;;6.37;;
7833;SDS011;3962;42.696;23.354;2023-01-24T06:03:00;13.37;;;7.20;;
7833;SDS011;3962;42.696;23.354;2023-01-24T06:05:27;9.50;;;6.90;;
7833;SDS011;3962;42.696;23.354;2023-01-24T06:07:53;16.57;;;7.57;;
7833;SDS011;3962;42.696;23.354;2023-01-24T06:10:20;12.37;;;6.40;;
7833;SDS011;3962;42.696;23.354;2023-01-24T06:12:47;8.70;;;6.03;;
7833;SDS011;3962;42.696;23.354;2023-01-24T06:15:15;16.37;;;6.17;;
7833;SDS011;3962;42.696;23.354;2023-01-24T06:17:42;12.07;;;5.43;;
7833;SDS011;3962;42.696;23.354;2023-01-24T06:20:10;17.17;;;6.37;;
7833;SDS011;3962;42.696;23.354;2023-01-24T06:22:39;9.53;;;6.27;;
7833;SDS011;3962;42.696;23.354;2023-01-24T06:25:14;10.00;;;5.53;;
7833;SDS011;3962;42.696;23.354;2023-01-24T06:27:46;10.50;;;6.03;;
7833;SDS011;3962;42.696;23.354;2023-01-24T06:30:15;10.03;;;5.17;;
7833;SDS011;3962;42.696;23.354;2023-01-24T06:32:48;8.47;;;5.40;;
7833;SDS011;3962;42.696;23.354;2023-01-24T06:35:28;5.43;;;4.90;;
7833;SDS011;3962;42.696;23.354;2023-01-24T06:38:02;9.47;;;5.03;;
7833;SDS011;3962;42.696;23.354;2023-01-24T06:40:29;12.43;;;5.37;;
7833;SDS011;3962;42.696;23.354;2023-01-24T06:42:57;7.63;;;5.03;;
7833;SDS011;3962;42.696;23.354;2023-01-24T06:45:25;6.60;;;4.57;;
7833;SDS011;3962;42.696;23.354;2023-01-24T06:47:52;7.20;;;5.67;;
7833;SDS011;3962;42.696;23.354;2023-01-24T06:50:20;7.10;;;4.40;;
7833;SDS011;3962;42.696;23.354;2023-01-24T06:52:48;6.07;;;4.63;;
7833;SDS011;3962;42.696;23.354;2023-01-24T06:55:16;8.83;;;6.00;;
7833;SDS011;3962;42.696;23.354;2023-01-24T06:57:43;12.50;;;6.70;;
7833;SDS011;3962;42.696;23.354;2023-01-24T07:00:12;10.10;;;5.17;;
7833;SDS011;3962;42.696;23.354;2023-01-24T07:02:41;8.13;;;5.33;;
7833;SDS011;3962;42.696;23.354;2023-01-24T07:05:08;5.30;;;4.20;;
7833;SDS011;3962;42.696;23.354;2023-01-24T07:07:35;8.83;;;5.63;;
7833;SDS011;3962;42.696;23.354;2023-01-24T07:10:02;9.33;;;5.90;;
7833;SDS011;3962;42.696;23.354;2023-01-24T07:12:29;11.70;;;6.70;;
7833;SDS011;3962;42.696;23.354;2023-01-24T07:14:55;7.60;;;5.00;;
7833;SDS011;3962;42.696;23.354;2023-01-24T07:17:22;7.40;;;4.77;;
7833;SDS011;3962;42.696;23.354;2023-01-24T07:19:51;9.03;;;5.90;;
7833;SDS011;3962;42.696;23.354;2023-01-24T07:22:18;8.00;;;5.83;;
7833;SDS011;3962;42.696;23.354;2023-01-24T07:24:45;7.30;;;5.37;;
7833;SDS011;3962;42.696;23.354;2023-01-24T07:27:13;7.97;;;4.87;;
7833;SDS011;3962;42.696;23.354;2023-01-24T07:29:40;7.97;;;4.83;;
7833;SDS011;3962;42.696;23.354;2023-01-24T07:32:08;6.47;;;4.70;;
7833;SDS011;3962;42.696;23.354;2023-01-24T07:34:35;8.00;;;5.43;;
7833;SDS011;3962;42.696;23.354;2023-01-24T07:37:04;8.80;;;5.73;;
7833;SDS011;3962;42.696;23.354;2023-01-24T07:39:32;11.13;;;5.77;;
7833;SDS011;3962;42.696;23.354;2023-01-24T07:41:58;6.63;;;5.03;;
7833;SDS011;3962;42.696;23.354;2023-01-24T07:44:26;9.07;;;5.80;;
7833;SDS011;3962;42.696;23.354;2023-01-24T07:46:53;6.83;;;5.17;;
7833;SDS011;3962;42.696;23.354;2023-01-24T07:49:20;7.27;;;4.00;;
7833;SDS011;3962;42.696;23.354;2023-01-24T07:51:46;8.53;;;5.43;;
7833;SDS011;3962;42.696;23.354;2023-01-24T07:54:15;7.07;;;4.57;;
7833;SDS011;3962;42.696;23.354;2023-01-24T07:56:45;6.00;;;5.17;;
7833;SDS011;3962;42.696;23.354;2023-01-24T07:59:11;9.63;;;6.23;;
7833;SDS011;3962;42.696;23.354;2023-01-24T08:01:38;9.30;;;5.67;;
7833;SDS011;3962;42.696;23.354;2023-01-24T08:04:05;13.23;;;8.10;;
7833;SDS011;3962;42.696;23.354;2023-01-24T08:06:32;11.97;;;7.33;;
7833;SDS011;3962;42.696;23.354;2023-01-24T08:08:59;11.73;;;6.83;;
7833;SDS011;3962;42.696;23.354;2023-01-24T08:11:27;12.13;;;7.27;;
7833;SDS011;3962;42.696;23.354;2023-01-24T08:13:54;10.23;;;6.57;;
7833;SDS011;3962;42.696;23.354;2023-01-24T08:16:21;8.93;;;5.93;;
7833;SDS011;3962;42.696;23.354;2023-01-24T08:18:50;11.43;;;6.53;;
7833;SDS011;3962;42.696;23.354;2023-01-24T08:21:17;9.68;;;6.95;;
7833;SDS011;3962;42.696;23.354;2023-01-24T08:23:44;9.68;;;6.65;;
7833;SDS011;3962;42.696;23.354;2023-01-24T08:26:11;14.03;;;7.47;;
7833;SDS011;3962;42.696;23.354;2023-01-24T08:28:39;10.57;;;5.80;;
7833;SDS011;3962;42.696;23.354;2023-01-24T08:31:05;13.83;;;6.93;;
7833;SDS011;3962;42.696;23.354;2023-01-24T08:33:32;10.93;;;6.83;;
7833;SDS011;3962;42.696;23.354;2023-01-24T08:36:03;10.50;;;6.30;;
7833;SDS011;3962;42.696;23.354;2023-01-24T08:38:30;7.00;;;5.43;;
7833;SDS011;3962;42.696;23.354;2023-01-24T08:40:57;9.50;;;5.30;;
7833;SDS011;3962;42.696;23.354;2023-01-24T08:43:24;7.17;;;5.20;;
7833;SDS011;3962;42.696;23.354;2023-01-24T08:45:54;8.07;;;5.47;;
7833;SDS011;3962;42.696;23.354;2023-01-24T08:48:21;6.03;;;4.53;;
7833;SDS011;3962;42.696;23.354;2023-01-24T08:50:48;11.70;;;6.33;;
7833;SDS011;3962;42.696;23.354;2023-01-24T08:53:15;9.97;;;6.47;;
7833;SDS011;3962;42.696;23.354;2023-01-24T08:55:42;8.53;;;5.70;;
7833;SDS011;3962;42.696;23.354;2023-01-24T08:58:08;7.40;;;5.57;;
7833;SDS011;3962;42.696;23.354;2023-01-24T09:00:35;11.43;;;6.27;;
7833;SDS011;3962;42.696;23.354;2023-01-24T09:03:03;10.97;;;6.67;;
7833;SDS011;3962;42.696;23.354;2023-01-24T09:05:30;10.37;;;6.77;;
7833;SDS011;3962;42.696;23.354;2023-01-24T09:07:57;17.17;;;7.83;;
7833;SDS011;3962;42.696;23.354;2023-01-24T09:10:25;13.70;;;8.30;;
7833;SDS011;3962;42.696;23.354;2023-01-24T09:12:52;12.47;;;7.10;;
7833;SDS011;3962;42.696;23.354;2023-01-24T09:15:19;9.70;;;6.13;;
7833;SDS011;3962;42.696;23.354;2023-01-24T09:17:46;11.30;;;6.83;;
7833;SDS011;3962;42.696;23.354;2023-01-24T09:20:14;7.83;;;5.87;;
7833;SDS011;3962;42.696;23.354;2023-01-24T09:22:41;8.13;;;6.03;;
7833;SDS011;3962;42.696;23.354;2023-01-24T09:25:08;8.77;;;6.10;;
7833;SDS011;3962;42.696;23.354;2023-01-24T09:27:35;7.30;;;5.50;;
7833;SDS011;3962;42.696;23.354;2023-01-24T09:30:03;6.97;;;6.00;;
7833;SDS011;3962;42.696;23.354;2023-01-24T09:32:30;6.63;;;4.73;;
7833;SDS011;3962;42.696;23.354;2023-01-24T09:34:57;8.57;;;5.47;;
7833;SDS011;3962;42.696;23.354;2023-01-24T09:37:26;11.33;;;7.67;;
7833;SDS011;3962;42.696;23.354;2023-01-24T09:39:53;8.67;;;5.77;;
7833;SDS011;3962;42.696;23.354;2023-01-24T09:42:24;11.23;;;5.50;;
7833;SDS011;3962;42.696;23.354;2023-01-24T09:45:00;5.67;;;3.93;;
7833;SDS011;3962;42.696;23.354;2023-01-24T09:47:39;10.23;;;5.93;;
7833;SDS011;3962;42.696;23.354;2023-01-24T09:50:09;7.97;;;5.13;;
7833;SDS011;3962;42.696;23.354;2023-01-24T09:52:44;5.67;;;4.03;;
7833;SDS011;3962;42.696;23.354;2023-01-24T09:55:14;7.10;;;5.83;;
7833;SDS011;3962;42.696;23.354;2023-01-24T09:57:49;5.93;;;4.40;;
7833;SDS011;3962;42.696;23.354;2023-01-24T10:00:22;6.07;;;4.63;;
7833;SDS011;3962;42.696;23.354;2023-01-24T10:02:51;9.00;;;7.50;;
7833;SDS011;3962;42.696;23.354;2023-01-24T10:05:20;6.80;;;5.90;;
7833;SDS011;3962;42.696;23.354;2023-01-24T10:08:07;6.13;;;4.77;;
7833;SDS011;3962;42.696;23.354;2023-01-24T10:10:44;10.10;;;6.00;;
7833;SDS011;3962;42.696;23.354;2023-01-24T10:16:20;8.17;;;5.07;;
7833;SDS011;3962;42.696;23.354;2023-01-24T10:19:06;11.30;;;8.73;;
7833;SDS011;3962;42.696;23.354;2023-01-24T10:24:51;5.27;;;3.67;;
7833;SDS011;3962;42.696;23.354;2023-01-24T10:27:25;4.47;;;3.37;;
7833;SDS011;3962;42.696;23.354;2023-01-24T10:29:55;3.20;;;2.90;;
7833;SDS011;3962;42.696;23.354;2023-01-24T10:32:29;5.13;;;4.03;;
7833;SDS011;3962;42.696;23.354;2023-01-24T10:34:58;3.77;;;3.33;;
7833;SDS011;3962;42.696;23.354;2023-01-24T10:37:31;4.43;;;3.43;;
7833;SDS011;3962;42.696;23.354;2023-01-24T10:40:10;4.63;;;3.50;;
7833;SDS011;3962;42.696;23.354;2023-01-24T10:42:38;3.77;;;3.43;;
7833;SDS011;3962;42.696;23.354;2023-01-24T10:45:12;4.23;;;3.53;;
7833;SDS011;3962;42.696;23.354;2023-01-24T10:47:55;6.07;;;4.27;;
7833;SDS011;3962;42.696;23.354;2023-01-24T10:50:32;4.07;;;3.63;;
7833;SDS011;3962;42.696;23.354;2023-01-24T10:53:11;4.17;;;2.87;;
7833;SDS011;3962;42.696;23.354;2023-01-24T10:55:41;3.70;;;3.17;;
7833;SDS011;3962;42.696;23.354;2023-01-24T10:58:18;5.47;;;3.40;;
7833;SDS011;3962;42.696;23.354;2023-01-24T11:00:47;5.57;;;4.00;;
7833;SDS011;3962;42.696;23.354;2023-01-24T11:03:23;7.90;;;6.17;;
7833;SDS011;3962;42.696;23.354;2023-01-24T11:05:53;5.00;;;4.30;;
7833;SDS011;3962;42.696;23.354;2023-01-24T11:08:22;3.10;;;2.80;;
7833;SDS011;3962;42.696;23.354;2023-01-24T11:10:52;2.50;;;2.30;;
7833;SDS011;3962;42.696;23.354;2023-01-24T11:13:24;2.90;;;2.60;;
7833;SDS011;3962;42.696;23.354;2023-01-24T11:15:58;4.83;;;3.70;;
7833;SDS011;3962;42.696;23.354;2023-01-24T11:18:28;3.77;;;2.90;;
7833;SDS011;3962;42.696;23.354;2023-01-24T11:21:10;6.33;;;4.07;;
7833;SDS011;3962;42.696;23.354;2023-01-24T11:23:39;7.73;;;5.57;;
7833;SDS011;3962;42.696;23.354;2023-01-24T11:26:20;8.50;;;5.00;;
7833;SDS011;3962;42.696;23.354;2023-01-24T11:28:56;9.37;;;5.63;;
7833;SDS011;3962;42.696;23.354;2023-01-24T11:31:30;6.57;;;4.57;;
7833;SDS011;3962;42.696;23.354;2023-01-24T11:34:04;7.33;;;4.43;;
7833;SDS011;3962;42.696;23.354;2023-01-24T11:36:50;4.97;;;4.00;;
7833;SDS011;3962;42.696;23.354;2023-01-24T11:39:32;6.23;;;4.27;;
7833;SDS011;3962;42.696;23.354;2023-01-24T11:42:09;9.77;;;4.60;;
7833;SDS011;3962;42.696;23.354;2023-01-24T11:44:50;4.43;;;3.93;;
7833;SDS011;3962;42.696;23.354;2023-01-24T11:47:27;4.57;;;4.10;;
7833;SDS011;3962;42.696;23.354;2023-01-24T11:50:02;3.50;;;3.00;;
7833;SDS011;3962;42.696;23.354;2023-01-24T11:52:53;7.17;;;4.90;;
7833;SDS011;3962;42.696;23.354;2023-01-24T11:55:39;2.90;;;2.60;;
7833;SDS011;3962;42.696;23.354;2023-01-24T11:58:25;5.87;;;3.73;;
7833;SDS011;3962;42.696;23.354;2023-01-24T12:01:04;5.43;;;4.10;;
7833;SDS011;3962;42.696;23.354;2023-01-24T12:03:47;4.93;;;3.33;;
7833;SDS011;3962;42.696;23.354;2023-01-24T12:06:26;8.30;;;4.00;;
7833;SDS011;3962;42.696;23.354;2023-01-24T12:09:06;5.70;;;3.50;;
7833;SDS011;3962;42.696;23.354;2023-01-24T12:11:44;4.40;;;4.00;;
7833;SDS011;3962;42.696;23.354;2023-01-24T12:17:15;7.57;;;4.20;;
7833;SDS011;3962;42.696;23.354;2023-01-24T12:20:12;4.97;;;3.83;;
7833;SDS011;3962;42.696;23.354;2023-01-24T12:23:11;3.40;;;2.93;;
7833;SDS011;3962;42.696;23.354;2023-01-24T12:25:45;4.73;;;3.63;;
7833;SDS011;3962;42.696;23.354;2023-01-24T12:28:16;4.47;;;3.50;;
7833;SDS011;3962;42.696;23.354;2023-01-24T12:30:55;8.00;;;5.80;;
7833;SDS011;3962;42.696;23.354;2023-01-24T12:33:26;3.50;;;2.97;;
7833;SDS011;3962;42.696;23.354;2023-01-24T12:35:58;6.77;;;4.70;;
7833;SDS011;3962;42.696;23.354;2023-01-24T12:38:29;5.23;;;4.00;;
7833;SDS011;3962;42.696;23.354;2023-01-24T12:41:05;6.97;;;4.30;;
7833;SDS011;3962;42.696;23.354;2023-01-24T12:43:45;6.13;;;3.07;;
7833;SDS011;3962;42.696;23.354;2023-01-24T12:46:21;6.53;;;3.90;;
7833;SDS011;3962;42.696;23.354;2023-01-24T12:48:53;6.30;;;3.73;;
7833;SDS011;3962;42.696;23.354;2023-01-24T12:51:26;6.90;;;4.20;;
7833;SDS011;3962;42.696;23.354;2023-01-24T12:53:57;4.97;;;3.80;;
7833;SDS011;3962;42.696;23.354;2023-01-24T12:56:31;5.47;;;3.53;;
7833;SDS011;3962;42.696;23.354;2023-01-24T12:59:03;6.37;;;4.30;;
7833;SDS011;3962;42.696;23.354;2023-01-24T13:01:37;9.20;;;4.37;;
7833;SDS011;3962;42.696;23.354;2023-01-24T13:04:18;7.40;;;5.40;;
7833;SDS011;3962;42.696;23.354;2023-01-24T13:06:55;9.27;;;4.00;;
7833;SDS011;3962;42.696;23.354;2023-01-24T13:09:33;5.67;;;4.90;;
7833;SDS011;3962;42.696;23.354;2023-01-24T13:12:09;8.07;;;4.57;;
7833;SDS011;3962;42.696;23.354;2023-01-24T13:14:40;5.30;;;4.30;;
7833;SDS011;3962;42.696;23.354;2023-01-24T13:17:18;4.60;;;4.10;;
7833;SDS011;3962;42.696;23.354;2023-01-24T13:19:57;11.37;;;5.50;;
7833;SDS011;3962;42.696;23.354;2023-01-24T13:22:33;4.13;;;3.20;;
7833;SDS011;3962;42.696;23.354;2023-01-24T13:25:22;9.23;;;4.33;;
7833;SDS011;3962;42.696;23.354;2023-01-24T13:28:05;3.63;;;3.10;;
7833;SDS011;3962;42.696;23.354;2023-01-24T13:30:41;6.20;;;3.97;;
7833;SDS011;3962;42.696;23.354;2023-01-24T13:33:15;7.00;;;4.43;;
7833;SDS011;3962;42.696;23.354;2023-01-24T13:35:46;4.23;;;3.63;;
7833;SDS011;3962;42.696;23.354;2023-01-24T13:38:16;8.40;;;4.90;;
7833;SDS011;3962;42.696;23.354;2023-01-24T13:40:57;4.10;;;3.70;;
7833;SDS011;3962;42.696;23.354;2023-01-24T13:49:40;8.57;;;3.43;;
7833;SDS011;3962;42.696;23.354;2023-01-24T13:52:36;9.37;;;4.13;;
7833;SDS011;3962;42.696;23.354;2023-01-24T13:55:15;11.13;;;4.73;;
7833;SDS011;3962;42.696;23.354;2023-01-24T13:58:26;10.97;;;4.77;;
7833;SDS011;3962;42.696;23.354;2023-01-24T14:00:55;9.60;;;4.70;;
7833;SDS011;3962;42.696;23.354;2023-01-24T14:03:26;8.47;;;3.97;;
7833;SDS011;3962;42.696;23.354;2023-01-24T14:06:03;8.97;;;4.90;;
7833;SDS011;3962;42.696;23.354;2023-01-24T14:08:33;18.70;;;5.67;;
7833;SDS011;3962;42.696;23.354;2023-01-24T14:11:22;10.73;;;4.93;;
7833;SDS011;3962;42.696;23.354;2023-01-24T14:13:58;13.63;;;5.03;;
7833;SDS011;3962;42.696;23.354;2023-01-24T14:16:54;6.97;;;4.53;;
7833;SDS011;3962;42.696;23.354;2023-01-24T14:19:25;7.27;;;4.03;;
7833;SDS011;3962;42.696;23.354;2023-01-24T14:21:57;11.30;;;5.50;;
7833;SDS011;3962;42.696;23.354;2023-01-24T14:24:32;17.90;;;7.17;;
7833;SDS011;3962;42.696;23.354;2023-01-24T14:27:13;13.30;;;6.13;;
7833;SDS011;3962;42.696;23.354;2023-01-24T14:29:44;20.57;;;8.00;;
7833;SDS011;3962;42.696;23.354;2023-01-24T14:32:18;12.47;;;5.47;;
7833;SDS011;3962;42.696;23.354;2023-01-24T14:34:50;11.60;;;4.20;;
7833;SDS011;3962;42.696;23.354;2023-01-24T14:37:26;17.30;;;5.50;;
7833;SDS011;3962;42.696;23.354;2023-01-24T14:40:08;12.57;;;6.27;;
7833;SDS011;3962;42.696;23.354;2023-01-24T14:42:36;8.03;;;5.80;;
7833;SDS011;3962;42.696;23.354;2023-01-24T14:45:04;8.90;;;5.47;;
7833;SDS011;3962;42.696;23.354;2023-01-24T14:47:38;17.10;;;6.20;;
7833;SDS011;3962;42.696;23.354;2023-01-24T14:50:25;14.43;;;6.57;;
7833;SDS011;3962;42.696;23.354;2023-01-24T14:52:55;12.87;;;6.60;;
7833;SDS011;3962;42.696;23.354;2023-01-24T14:55:30;8.47;;;5.13;;
7833;SDS011;3962;42.696;23.354;2023-01-24T14:58:18;17.83;;;6.70;;
7833;SDS011;3962;42.696;23.354;2023-01-24T15:00:47;13.73;;;6.67;;
7833;SDS011;3962;42.696;23.354;2023-01-24T15:03:16;20.37;;;7.10;;
7833;SDS011;3962;42.696;23.354;2023-01-24T15:05:49;8.17;;;5.93;;
7833;SDS011;3962;42.696;23.354;2023-01-24T15:08:19;8.40;;;5.77;;
7833;SDS011;3962;42.696;23.354;2023-01-24T15:10:51;6.60;;;4.30;;
7833;SDS011;3962;42.696;23.354;2023-01-24T15:13:22;11.93;;;5.73;;
7833;SDS011;3962;42.696;23.354;2023-01-24T15:15:51;9.73;;;5.27;;
7833;SDS011;3962;42.696;23.354;2023-01-24T15:18:24;8.10;;;5.00;;
7833;SDS011;3962;42.696;23.354;2023-01-24T15:21:00;10.17;;;6.73;;
7833;SDS011;3962;42.696;23.354;2023-01-24T15:23:29;15.97;;;6.53;;
7833;SDS011;3962;42.696;23.354;2023-01-24T15:25:57;12.63;;;5.90;;
7833;SDS011;3962;42.696;23.354;2023-01-24T15:28:44;18.03;;;7.90;;
7833;SDS011;3962;42.696;23.354;2023-01-24T15:31:17;9.33;;;5.23;;
7833;SDS011;3962;42.696;23.354;2023-01-24T15:33:45;9.73;;;5.40;;
7833;SDS011;3962;42.696;23.354;2023-01-24T15:36:20;7.73;;;5.03;;
7833;SDS011;3962;42.696;23.354;2023-01-24T15:38:51;12.17;;;7.40;;
7833;SDS011;3962;42.696;23.354;2023-01-24T15:41:22;12.57;;;7.73;;
7833;SDS011;3962;42.696;23.354;2023-01-24T15:44:10;27.30;;;8.43;;